Tokio, Japonia

05:11 PM JST on decembrie 04, 2016 (GMT +0900)
Ōta-ku | | Change Station

Elev 0 ft 35.56 °N, 139.73 °E | Updated 4 minutes ago

Mostly Cloudy
Cer în general noros
58.5 °F
Feels Like 58.5 °F
N
0.0
Vânt variabil Vânt from nord
Gusts 0.6 mph

astăzi
High -- | Low -- °F
--% Chance of Precip.
Ieri
High -- | Low -- °F
Precip. -- inch
Presiunea 30.01 inch
Vizibilitatea 6.2 mile
Nori Few 3000 ft
Cer în general noros 15000 ft
Punctul de rouă 48 °F
Umiditatea 68%
Precipitaţii 0.00 inch
Adâncimea zăpezii Not available.
6:34 AM 4:27 PM
Semilună în creştere, 21% visible
METAR RJTT 040800Z 21009KT 9999 FEW030 BKN150 17/09 Q1016 NOSIG RMK 1CU030 7AC150 A3000
Presiunea 30.01 inch
Vizibilitatea 6.2 mile
Nori Few 3000 ft
Cer în general noros 15000 ft
Punctul de rouă 48 °F
Umiditatea 68%
Precipitaţii 0.00 inch
Adâncimea zăpezii Not available.
6:34 AM 4:27 PM
Semilună în creştere, 21% visible
METAR RJTT 040800Z 21009KT 9999 FEW030 BKN150 17/09 Q1016 NOSIG RMK 1CU030 7AC150 A3000

10-Day Weather Forecast

No radar image for this location.
×

Almanac

Astronomie

Dec. 04, 2016 Răsărit Apus
Timpul Actual
Crepusculul Civil
Crepusculul nautic
Răsărit Astronomic
Luna
Durata zilei lumină
Lungimea zilei
Tomorrow will be .
, % of the Moon is Illuminated

Extremele de azi

Country Highs Country Lows

Community

WunderPhotos

Upload Photos

1,955,587 photos uploaded!

WunderBlog® & News

Nearby

Calitatea aerului

  Calitatea aerului Index de calitate a aerului Poluat
Not available.

Adâncimea zapezii

Station Depth Elevation

Earthquake Activity

Oraş Distance Mag. Time & Date
Minimum magnitude displayed is 2.5.

Coastal Water Temperatures

Locul Temperatura

Stations

Nearby Weather Stations

Locaţia staţiei Temp Vânt rece Punctul de rouă Umiditatea Vânt Precip. Elev Actualizare Type